createdAt,value
2023-02-11T00:01:55.077Z,25.20
2023-02-11T00:04:40.970Z,18.48
2023-02-11T00:07:29.243Z,25.48
2023-02-11T00:10:15.096Z,24.50
2023-02-11T00:13:01.004Z,20.55
2023-02-11T00:15:46.616Z,20.08
2023-02-11T00:18:32.002Z,18.35
2023-02-11T00:21:20.042Z,17.77
2023-02-11T00:24:21.871Z,20.08
2023-02-11T00:27:09.030Z,18.25
2023-02-11T00:29:58.016Z,19.00
2023-02-11T00:32:43.529Z,19.40
2023-02-11T00:35:29.403Z,23.35
2023-02-11T00:38:15.167Z,20.27
2023-02-11T00:41:03.211Z,13.98
2023-02-11T00:43:51.229Z,18.80
2023-02-11T00:46:38.521Z,18.77
2023-02-11T00:49:25.546Z,18.45
2023-02-11T00:52:11.502Z,12.65
2023-02-11T00:54:57.372Z,19.23
2023-02-11T00:57:49.842Z,18.02
2023-02-11T01:00:47.466Z,22.30
2023-02-11T01:03:36.773Z,18.80
2023-02-11T01:06:22.706Z,19.92
2023-02-11T01:09:08.859Z,18.63
2023-02-11T01:11:55.435Z,20.90
2023-02-11T01:14:43.089Z,19.73
2023-02-11T01:17:28.959Z,22.40
2023-02-11T01:20:17.760Z,17.63
2023-02-11T01:23:03.514Z,18.75
2023-02-11T01:25:51.101Z,21.10
2023-02-11T01:28:37.281Z,14.07
2023-02-11T01:31:24.694Z,14.15
2023-02-11T01:34:11.620Z,16.92
2023-02-11T01:36:58.953Z,23.23
2023-02-11T01:39:45.080Z,14.45
2023-02-11T01:42:32.656Z,14.82
2023-02-11T01:45:47.020Z,17.02
2023-02-11T01:48:38.188Z,17.15
2023-02-11T01:54:34.665Z,13.30
2023-02-11T01:57:24.938Z,16.95
2023-02-11T02:00:14.169Z,19.17
2023-02-11T02:03:06.140Z,19.37
2023-02-11T02:05:58.687Z,17.23
2023-02-11T02:08:53.455Z,22.00
2023-02-11T02:11:39.238Z,13.50
2023-02-11T02:14:26.567Z,24.60
2023-02-11T02:17:24.935Z,17.05
2023-02-11T02:20:58.267Z,19.50
2023-02-11T02:24:21.608Z,17.70
2023-02-11T02:27:43.751Z,16.80
2023-02-11T02:31:01.504Z,15.52
2023-02-11T02:33:55.736Z,24.27
2023-02-11T02:36:46.285Z,17.20
2023-02-11T02:39:35.369Z,23.40
2023-02-11T02:42:22.364Z,23.40
2023-02-11T02:45:10.972Z,15.77
2023-02-11T02:47:56.724Z,17.48
2023-02-11T02:50:43.943Z,15.07
2023-02-11T02:53:38.844Z,23.52
2023-02-11T02:56:30.776Z,20.45
2023-02-11T02:59:35.517Z,18.63
2023-02-11T03:02:27.891Z,14.43
2023-02-11T03:05:18.778Z,15.75
2023-02-11T03:08:09.955Z,19.25
2023-02-11T03:13:44.393Z,21.95
2023-02-11T03:16:38.031Z,22.95
2023-02-11T03:19:26.561Z,17.77
2023-02-11T03:22:22.472Z,23.08
2023-02-11T03:25:10.192Z,20.73
2023-02-11T03:28:03.653Z,27.38
2023-02-11T03:30:55.405Z,25.83
2023-02-11T03:33:49.211Z,23.50
2023-02-11T03:36:46.144Z,22.65
2023-02-11T03:39:36.815Z,21.23
2023-02-11T03:42:27.164Z,22.02
2023-02-11T03:45:16.552Z,20.48
2023-02-11T03:48:06.892Z,27.92
2023-02-11T03:50:55.285Z,28.77
2023-02-11T03:53:44.382Z,23.90
2023-02-11T03:56:33.216Z,27.63
2023-02-11T03:59:20.645Z,24.48
2023-02-11T04:02:06.534Z,24.88
2023-02-11T04:04:52.136Z,24.75
2023-02-11T04:07:37.732Z,18.23
2023-02-11T04:10:23.185Z,22.52
2023-02-11T04:13:08.713Z,29.25
2023-02-11T04:15:55.730Z,24.83
2023-02-11T04:18:41.293Z,20.45
2023-02-11T04:21:26.676Z,30.85
2023-02-11T04:24:12.305Z,34.05
2023-02-11T04:26:57.939Z,38.13
2023-02-11T04:29:43.493Z,29.77
2023-02-11T04:32:30.313Z,22.60
2023-02-11T04:35:15.939Z,34.40
2023-02-11T04:38:01.551Z,28.25
2023-02-11T04:40:47.321Z,31.50
2023-02-11T04:43:32.932Z,23.08
2023-02-11T04:46:18.321Z,26.23
2023-02-11T04:49:05.872Z,24.05
2023-02-11T04:51:51.683Z,27.10
2023-02-11T04:54:37.553Z,25.52
2023-02-11T04:57:23.474Z,28.92
2023-02-11T05:00:10.526Z,24.50
2023-02-11T05:02:56.114Z,35.60
2023-02-11T05:05:43.482Z,28.83
2023-02-11T05:08:29.482Z,26.52
2023-02-11T05:11:17.573Z,28.45
2023-02-11T05:14:03.458Z,36.97
2023-02-11T05:16:48.989Z,29.42
2023-02-11T05:19:34.503Z,27.08
2023-02-11T05:22:22.143Z,27.80
2023-02-11T05:25:08.627Z,26.35
2023-02-11T05:28:04.042Z,28.98
2023-02-11T05:30:50.451Z,37.38
2023-02-11T05:33:37.458Z,30.15
2023-02-11T05:36:23.501Z,33.88
2023-02-11T05:39:13.516Z,27.30
2023-02-11T05:41:59.176Z,35.53
2023-02-11T05:44:44.870Z,38.17
2023-02-11T05:47:34.134Z,37.72
2023-02-11T05:50:20.037Z,33.97
2023-02-11T05:53:06.854Z,41.72
2023-02-11T05:55:53.912Z,32.78
2023-02-11T05:58:39.857Z,39.15
2023-02-11T06:01:25.798Z,37.42
2023-02-11T06:04:11.388Z,35.78
2023-02-11T06:06:57.005Z,36.00
2023-02-11T06:09:43.124Z,36.85
2023-02-11T06:12:30.127Z,39.15
2023-02-11T06:15:15.969Z,38.42
2023-02-11T06:18:01.489Z,34.13
2023-02-11T06:20:47.123Z,35.60
2023-02-11T06:23:32.514Z,36.20
2023-02-11T06:26:20.666Z,39.25
2023-02-11T06:29:08.064Z,35.63
2023-02-11T06:31:53.947Z,35.38
2023-02-11T06:34:40.401Z,41.78
2023-02-11T06:37:26.388Z,39.40
2023-02-11T06:40:12.575Z,49.13
2023-02-11T06:42:58.097Z,41.83
2023-02-11T06:45:44.922Z,42.85
2023-02-11T06:48:30.670Z,39.85
2023-02-11T06:51:16.330Z,39.47
2023-02-11T06:54:01.785Z,46.90
2023-02-11T06:56:47.333Z,42.75
2023-02-11T06:59:33.048Z,41.10
2023-02-11T07:02:21.081Z,43.80
2023-02-11T07:05:07.627Z,44.95
2023-02-11T07:07:53.259Z,39.38
2023-02-11T07:10:38.867Z,44.45
2023-02-11T07:13:24.337Z,42.00
2023-02-11T07:16:12.709Z,43.60
2023-02-11T07:19:00.031Z,52.33
2023-02-11T07:21:45.662Z,46.40
2023-02-11T07:24:31.602Z,38.05
2023-02-11T07:27:17.523Z,44.85
2023-02-11T07:30:06.875Z,40.45
2023-02-11T07:32:53.078Z,50.78
2023-02-11T07:35:42.658Z,43.58
2023-02-11T07:38:28.468Z,48.42
2023-02-11T07:41:17.182Z,41.75
2023-02-11T07:44:03.282Z,47.90
2023-02-11T07:46:49.359Z,43.22
2023-02-11T07:49:35.270Z,55.15
2023-02-11T07:52:22.085Z,42.80
2023-02-11T07:55:09.159Z,45.00
2023-02-11T07:57:55.036Z,44.17
2023-02-11T08:00:40.809Z,44.70
2023-02-11T08:03:26.665Z,46.08
2023-02-11T08:06:14.412Z,41.72
2023-02-11T08:09:07.531Z,44.55
2023-02-11T08:11:53.373Z,44.40
2023-02-11T08:14:39.069Z,49.05
2023-02-11T08:17:24.559Z,45.05
2023-02-11T08:20:10.788Z,46.40
2023-02-11T08:22:56.597Z,53.70
2023-02-11T08:25:43.561Z,52.38
2023-02-11T08:28:29.276Z,48.17
2023-02-11T08:31:18.145Z,47.70
2023-02-11T08:34:04.209Z,56.55
2023-02-11T08:36:50.180Z,52.85
2023-02-11T08:39:36.019Z,52.40
2023-02-11T08:42:23.301Z,49.38
2023-02-11T08:45:10.435Z,55.30
2023-02-11T08:47:55.881Z,55.17
2023-02-11T08:50:41.350Z,59.20
2023-02-11T08:53:26.915Z,57.17
2023-02-11T08:56:19.490Z,62.38
2023-02-11T08:59:07.246Z,67.18
2023-02-11T09:01:53.234Z,57.55
2023-02-11T09:04:39.447Z,81.15
2023-02-11T09:07:25.148Z,61.35
2023-02-11T09:10:10.684Z,55.70
2023-02-11T09:12:56.615Z,60.88
2023-02-11T09:15:46.891Z,61.03
2023-02-11T09:18:33.410Z,61.13
2023-02-11T09:21:19.764Z,59.22
2023-02-11T09:24:06.680Z,55.83
2023-02-11T09:26:52.876Z,54.63
2023-02-11T09:29:38.366Z,59.05
2023-02-11T09:32:25.605Z,56.53
2023-02-11T09:35:11.129Z,60.88
2023-02-11T09:37:56.824Z,58.10
2023-02-11T09:40:43.683Z,53.00
2023-02-11T09:43:36.300Z,52.58
2023-02-11T09:46:23.176Z,45.97
2023-02-11T09:49:18.200Z,48.92
2023-02-11T09:52:07.176Z,53.90
2023-02-11T09:54:56.109Z,53.25
2023-02-11T09:57:41.884Z,53.95
2023-02-11T10:00:33.059Z,51.00
2023-02-11T10:03:49.747Z,51.65
2023-02-11T10:06:43.430Z,52.33
2023-02-11T10:09:40.958Z,47.72
2023-02-11T10:12:47.231Z,42.95
2023-02-11T10:15:43.209Z,48.22
2023-02-11T10:18:44.138Z,50.88
2023-02-11T10:21:38.779Z,37.35
2023-02-11T10:24:29.178Z,44.30
2023-02-11T10:27:19.396Z,40.67
2023-02-11T10:30:09.939Z,42.60
2023-02-11T10:33:00.825Z,40.97
2023-02-11T10:35:46.710Z,36.63
2023-02-11T10:38:33.810Z,36.70
2023-02-11T10:41:26.312Z,36.13
2023-02-11T10:44:23.263Z,33.20
2023-02-11T10:47:15.762Z,33.30
2023-02-11T10:50:04.408Z,33.85
2023-02-11T10:52:50.301Z,38.00
2023-02-11T10:55:36.897Z,34.00
2023-02-11T10:58:28.074Z,32.15
2023-02-11T11:01:24.376Z,31.83
2023-02-11T11:04:39.746Z,27.95
2023-02-11T11:07:27.886Z,32.22
2023-02-11T11:10:43.329Z,29.17
2023-02-11T11:13:33.435Z,28.70
2023-02-11T11:16:23.090Z,29.88
2023-02-11T11:19:20.427Z,29.73
2023-02-11T11:22:05.956Z,30.05
2023-02-11T11:24:54.293Z,32.55
2023-02-11T11:27:39.964Z,24.95
2023-02-11T11:30:32.991Z,25.70
2023-02-11T11:33:22.574Z,27.30
2023-02-11T11:36:12.075Z,22.20
